This is the latest recevied weather packets stored in our database for station/object YO6FNF-10. If no packets are shown the sender has not sent any weather packets the latest 10 day(s).
| Time | Temp. | Humidity | Pressure | Rain* | Wind** | Luminosity | Snow |
|---|---|---|---|---|---|---|---|
| 1777492430 | 5.56° C | 67% | 1022.9 hPa | - | - | - | - |
| 1777487254 | 7.78° C | 62% | 1021.6 hPa | - | - | - | - |
| 1777486354 | 7.22° C | 65% | 1021.4 hPa | - | - | - | - |
| 1777485454 | 7.78° C | 63% | 1021.1 hPa | - | - | - | - |
| 1777484554 | 7.22° C | 63% | 1021.1 hPa | - | - | - | - |
| 1777483653 | 7.22° C | 62% | 1020.8 hPa | - | - | - | - |
| 1777482753 | 7.78° C | 59% | 1020.5 hPa | - | - | - | - |
| 1777481853 | 8.89° C | 58% | 1019.8 hPa | - | - | - | - |
| 1777480953 | 8.89° C | 59% | 1019.4 hPa | - | - | - | - |
| 1777480052 | 10° C | 57% | 1019.3 hPa | - | - | - | - |
| 1777479152 | 10.56° C | 51% | 1019.2 hPa | - | - | - | - |
| 1777478252 | 11.67° C | 47% | 1018.8 hPa | - | - | - | - |
| 1777477352 | 12.78° C | 43% | 1019 hPa | - | - | - | - |
| 1777476452 | 13.33° C | 47% | 1018.9 hPa | - | - | - | - |
| 1777475552 | 13.89° C | 48% | 1018.8 hPa | - | - | - | - |
| 1777474651 | 14.44° C | 45% | 1018.6 hPa | - | - | - | - |
| 1777473751 | 15.56° C | 39% | 1018.5 hPa | - | - | - | - |
| 1777472851 | 19.44° C | 32% | 1018.2 hPa | - | - | - | - |
| 1777471951 | 17.22° C | 30% | 1018.3 hPa | - | - | - | - |
| 1777471051 | 17.22° C | 33% | 1018.2 hPa | - | - | - | - |
| 1777470150 | 16.11° C | 34% | 1018.5 hPa | - | - | - | - |
| 1777469250 | 16.11° C | 34% | 1018.6 hPa | - | - | - | - |
| 1777468350 | 16.11° C | 33% | 1018.6 hPa | - | - | - | - |
| 1777467450 | 16.11° C | 34% | 1018.7 hPa | - | - | - | - |
| 1777466550 | 16.67° C | 33% | 1018.7 hPa | - | - | - | - |
* Rain since midnight (hover to see other rain measurements)
** Current wind speed in m/s (hover to see current wind gust speed)